sensor_id;sensor_type;location;lat;lon;timestamp;temperature;humidity
5802;DHT22;2927;49.366;8.530;2023-05-06T00:01:01;13.20;99.90
5802;DHT22;2927;49.366;8.530;2023-05-06T00:03:27;13.20;99.90
5802;DHT22;2927;49.366;8.530;2023-05-06T00:05:53;13.20;99.90
5802;DHT22;2927;49.366;8.530;2023-05-06T00:08:18;13.10;99.90
5802;DHT22;2927;49.366;8.530;2023-05-06T00:10:44;13.10;99.90
5802;DHT22;2927;49.366;8.530;2023-05-06T00:13:10;13.10;99.90
5802;DHT22;2927;49.366;8.530;2023-05-06T00:15:36;13.00;99.90
5802;DHT22;2927;49.366;8.530;2023-05-06T00:18:01;13.10;99.90
5802;DHT22;2927;49.366;8.530;2023-05-06T00:20:27;13.10;99.90
5802;DHT22;2927;49.366;8.530;2023-05-06T00:22:53;13.00;99.90
5802;DHT22;2927;49.366;8.530;2023-05-06T00:25:19;13.10;99.90
5802;DHT22;2927;49.366;8.530;2023-05-06T00:27:44;13.20;99.90
5802;DHT22;2927;49.366;8.530;2023-05-06T00:30:11;13.10;99.90
5802;DHT22;2927;49.366;8.530;2023-05-06T00:32:36;13.20;99.90
5802;DHT22;2927;49.366;8.530;2023-05-06T00:35:02;13.20;99.90
5802;DHT22;2927;49.366;8.530;2023-05-06T00:37:28;13.20;99.90
5802;DHT22;2927;49.366;8.530;2023-05-06T00:39:54;13.20;99.90
5802;DHT22;2927;49.366;8.530;2023-05-06T00:42:19;13.30;99.90
5802;DHT22;2927;49.366;8.530;2023-05-06T00:44:48;13.20;99.90
5802;DHT22;2927;49.366;8.530;2023-05-06T00:47:14;13.20;99.90
5802;DHT22;2927;49.366;8.530;2023-05-06T00:49:41;13.20;99.90
5802;DHT22;2927;49.366;8.530;2023-05-06T00:52:07;13.20;99.90
5802;DHT22;2927;49.366;8.530;2023-05-06T00:54:33;13.20;99.90
5802;DHT22;2927;49.366;8.530;2023-05-06T00:56:58;13.20;99.90
5802;DHT22;2927;49.366;8.530;2023-05-06T00:59:24;13.20;99.90
5802;DHT22;2927;49.366;8.530;2023-05-06T01:01:50;13.20;99.90
5802;DHT22;2927;49.366;8.530;2023-05-06T01:04:16;13.10;99.90
5802;DHT22;2927;49.366;8.530;2023-05-06T01:09:51;13.10;99.90
5802;DHT22;2927;49.366;8.530;2023-05-06T01:12:34;13.00;99.90
5802;DHT22;2927;49.366;8.530;2023-05-06T01:15:07;13.10;99.90
5802;DHT22;2927;49.366;8.530;2023-05-06T01:17:42;13.00;99.90
5802;DHT22;2927;49.366;8.530;2023-05-06T01:20:09;13.00;99.90
5802;DHT22;2927;49.366;8.530;2023-05-06T01:22:36;13.00;99.90
5802;DHT22;2927;49.366;8.530;2023-05-06T01:25:02;13.00;99.90
5802;DHT22;2927;49.366;8.530;2023-05-06T01:27:28;12.90;99.90
5802;DHT22;2927;49.366;8.530;2023-05-06T01:29:54;12.90;99.90
5802;DHT22;2927;49.366;8.530;2023-05-06T01:32:43;12.80;99.90
5802;DHT22;2927;49.366;8.530;2023-05-06T01:35:45;12.70;99.90
5802;DHT22;2927;49.366;8.530;2023-05-06T01:38:30;12.70;99.90
5802;DHT22;2927;49.366;8.530;2023-05-06T01:40:59;12.60;99.90
5802;DHT22;2927;49.366;8.530;2023-05-06T01:43:27;12.50;99.90
5802;DHT22;2927;49.366;8.530;2023-05-06T01:45:55;12.40;99.90
5802;DHT22;2927;49.366;8.530;2023-05-06T01:48:23;12.50;99.90
5802;DHT22;2927;49.366;8.530;2023-05-06T01:50:50;12.40;99.90
5802;DHT22;2927;49.366;8.530;2023-05-06T01:53:16;12.40;99.90
5802;DHT22;2927;49.366;8.530;2023-05-06T01:55:41;12.40;99.90
5802;DHT22;2927;49.366;8.530;2023-05-06T01:58:07;12.40;99.90
5802;DHT22;2927;49.366;8.530;2023-05-06T02:00:32;12.40;99.90
5802;DHT22;2927;49.366;8.530;2023-05-06T02:02:58;12.40;99.90
5802;DHT22;2927;49.366;8.530;2023-05-06T02:05:23;12.40;99.90
5802;DHT22;2927;49.366;8.530;2023-05-06T02:07:49;12.40;99.90
5802;DHT22;2927;49.366;8.530;2023-05-06T02:10:15;12.30;99.90
5802;DHT22;2927;49.366;8.530;2023-05-06T02:12:41;12.30;99.90
5802;DHT22;2927;49.366;8.530;2023-05-06T02:15:07;12.30;99.90
5802;DHT22;2927;49.366;8.530;2023-05-06T02:17:34;12.30;99.90
5802;DHT22;2927;49.366;8.530;2023-05-06T02:20:00;12.30;99.90
5802;DHT22;2927;49.366;8.530;2023-05-06T02:22:25;12.20;99.90
5802;DHT22;2927;49.366;8.530;2023-05-06T02:24:51;12.20;99.90
5802;DHT22;2927;49.366;8.530;2023-05-06T02:27:16;12.10;99.90
5802;DHT22;2927;49.366;8.530;2023-05-06T02:29:42;12.10;99.90
5802;DHT22;2927;49.366;8.530;2023-05-06T02:32:08;12.00;99.90
5802;DHT22;2927;49.366;8.530;2023-05-06T02:34:33;12.10;99.90
5802;DHT22;2927;49.366;8.530;2023-05-06T02:36:59;12.10;99.90
5802;DHT22;2927;49.366;8.530;2023-05-06T02:39:24;12.00;99.90
5802;DHT22;2927;49.366;8.530;2023-05-06T02:41:50;12.00;99.90
5802;DHT22;2927;49.366;8.530;2023-05-06T02:44:15;11.80;99.90
5802;DHT22;2927;49.366;8.530;2023-05-06T02:46:41;11.80;99.90
5802;DHT22;2927;49.366;8.530;2023-05-06T02:49:08;11.70;99.90
5802;DHT22;2927;49.366;8.530;2023-05-06T02:51:33;11.80;99.90
5802;DHT22;2927;49.366;8.530;2023-05-06T02:53:59;11.80;99.90
5802;DHT22;2927;49.366;8.530;2023-05-06T02:56:24;11.80;99.90
5802;DHT22;2927;49.366;8.530;2023-05-06T02:58:51;11.70;99.90
5802;DHT22;2927;49.366;8.530;2023-05-06T03:01:16;11.70;99.90
5802;DHT22;2927;49.366;8.530;2023-05-06T03:03:42;11.80;99.90
5802;DHT22;2927;49.366;8.530;2023-05-06T03:06:07;11.70;99.90
5802;DHT22;2927;49.366;8.530;2023-05-06T03:08:33;11.70;99.90
5802;DHT22;2927;49.366;8.530;2023-05-06T03:10:58;11.60;99.90
5802;DHT22;2927;49.366;8.530;2023-05-06T03:13:24;11.60;99.90
5802;DHT22;2927;49.366;8.530;2023-05-06T03:15:53;11.50;99.90
5802;DHT22;2927;49.366;8.530;2023-05-06T03:18:18;11.50;99.90
5802;DHT22;2927;49.366;8.530;2023-05-06T03:20:45;11.50;99.90
5802;DHT22;2927;49.366;8.530;2023-05-06T03:23:10;11.50;99.90
5802;DHT22;2927;49.366;8.530;2023-05-06T03:25:36;11.50;99.90
5802;DHT22;2927;49.366;8.530;2023-05-06T03:28:01;11.60;99.90
5802;DHT22;2927;49.366;8.530;2023-05-06T03:30:27;11.60;99.90
5802;DHT22;2927;49.366;8.530;2023-05-06T03:32:54;11.60;99.90
5802;DHT22;2927;49.366;8.530;2023-05-06T03:35:20;11.50;99.90
5802;DHT22;2927;49.366;8.530;2023-05-06T03:37:46;11.50;99.90
5802;DHT22;2927;49.366;8.530;2023-05-06T03:40:11;11.40;99.90
5802;DHT22;2927;49.366;8.530;2023-05-06T03:42:37;11.30;99.90
5802;DHT22;2927;49.366;8.530;2023-05-06T03:45:03;11.30;99.90
5802;DHT22;2927;49.366;8.530;2023-05-06T03:47:29;11.30;99.90
5802;DHT22;2927;49.366;8.530;2023-05-06T03:49:55;11.20;99.90
5802;DHT22;2927;49.366;8.530;2023-05-06T03:52:20;11.20;99.90
5802;DHT22;2927;49.366;8.530;2023-05-06T03:54:46;11.20;99.90
5802;DHT22;2927;49.366;8.530;2023-05-06T03:57:11;11.30;99.90
5802;DHT22;2927;49.366;8.530;2023-05-06T03:59:37;11.20;99.90
5802;DHT22;2927;49.366;8.530;2023-05-06T04:02:02;11.30;99.90
5802;DHT22;2927;49.366;8.530;2023-05-06T04:04:28;11.20;99.90
5802;DHT22;2927;49.366;8.530;2023-05-06T04:06:54;11.20;99.90
5802;DHT22;2927;49.366;8.530;2023-05-06T04:09:19;11.20;99.90
5802;DHT22;2927;49.366;8.530;2023-05-06T04:11:45;11.20;99.90
5802;DHT22;2927;49.366;8.530;2023-05-06T04:14:10;11.20;99.90
5802;DHT22;2927;49.366;8.530;2023-05-06T04:16:36;11.10;99.90
5802;DHT22;2927;49.366;8.530;2023-05-06T04:19:01;11.10;99.90
5802;DHT22;2927;49.366;8.530;2023-05-06T04:21:27;11.10;99.90
5802;DHT22;2927;49.366;8.530;2023-05-06T04:23:54;11.10;99.90
5802;DHT22;2927;49.366;8.530;2023-05-06T04:26:20;11.20;99.90
5802;DHT22;2927;49.366;8.530;2023-05-06T04:28:45;11.20;99.90
5802;DHT22;2927;49.366;8.530;2023-05-06T04:31:11;11.20;99.90
5802;DHT22;2927;49.366;8.530;2023-05-06T04:33:38;11.20;99.90
5802;DHT22;2927;49.366;8.530;2023-05-06T04:36:05;11.30;99.90
5802;DHT22;2927;49.366;8.530;2023-05-06T04:38:31;11.30;99.90
5802;DHT22;2927;49.366;8.530;2023-05-06T04:40:57;11.40;99.90
5802;DHT22;2927;49.366;8.530;2023-05-06T04:43:24;11.50;99.90
5802;DHT22;2927;49.366;8.530;2023-05-06T04:45:51;11.50;99.90
5802;DHT22;2927;49.366;8.530;2023-05-06T04:48:17;11.60;99.90
5802;DHT22;2927;49.366;8.530;2023-05-06T04:50:43;11.70;99.90
5802;DHT22;2927;49.366;8.530;2023-05-06T04:53:09;11.60;99.90
5802;DHT22;2927;49.366;8.530;2023-05-06T04:55:35;11.70;99.90
5802;DHT22;2927;49.366;8.530;2023-05-06T04:58:01;11.80;99.90
5802;DHT22;2927;49.366;8.530;2023-05-06T05:00:26;11.90;99.90
5802;DHT22;2927;49.366;8.530;2023-05-06T05:02:52;11.90;99.90
5802;DHT22;2927;49.366;8.530;2023-05-06T05:05:19;12.00;99.90
5802;DHT22;2927;49.366;8.530;2023-05-06T05:07:44;12.20;99.90
5802;DHT22;2927;49.366;8.530;2023-05-06T05:10:10;12.20;99.90
5802;DHT22;2927;49.366;8.530;2023-05-06T05:12:35;12.30;99.90
5802;DHT22;2927;49.366;8.530;2023-05-06T05:15:01;12.40;99.90
5802;DHT22;2927;49.366;8.530;2023-05-06T05:17:27;12.60;99.90
5802;DHT22;2927;49.366;8.530;2023-05-06T05:19:53;12.70;99.90
5802;DHT22;2927;49.366;8.530;2023-05-06T05:22:18;12.80;99.90
5802;DHT22;2927;49.366;8.530;2023-05-06T05:24:44;12.90;99.90
5802;DHT22;2927;49.366;8.530;2023-05-06T05:27:09;13.10;99.90
5802;DHT22;2927;49.366;8.530;2023-05-06T05:29:35;13.20;99.90
5802;DHT22;2927;49.366;8.530;2023-05-06T05:32:01;13.30;99.90
5802;DHT22;2927;49.366;8.530;2023-05-06T05:34:26;13.50;99.90
5802;DHT22;2927;49.366;8.530;2023-05-06T05:36:52;13.70;99.90
5802;DHT22;2927;49.366;8.530;2023-05-06T05:39:17;13.90;99.90
5802;DHT22;2927;49.366;8.530;2023-05-06T05:41:43;14.10;99.90
5802;DHT22;2927;49.366;8.530;2023-05-06T05:44:08;14.40;99.90
5802;DHT22;2927;49.366;8.530;2023-05-06T05:46:34;14.60;99.90
5802;DHT22;2927;49.366;8.530;2023-05-06T05:49:00;15.00;99.90
5802;DHT22;2927;49.366;8.530;2023-05-06T05:51:25;15.80;99.90
5802;DHT22;2927;49.366;8.530;2023-05-06T05:53:51;17.30;99.90
5802;DHT22;2927;49.366;8.530;2023-05-06T05:56:17;18.60;91.70
5802;DHT22;2927;49.366;8.530;2023-05-06T05:58:42;19.30;1.00
5802;DHT22;2927;49.366;8.530;2023-05-06T06:01:08;19.70;1.00
5802;DHT22;2927;49.366;8.530;2023-05-06T06:03:33;20.20;1.00
5802;DHT22;2927;49.366;8.530;2023-05-06T06:05:59;20.80;1.00
5802;DHT22;2927;49.366;8.530;2023-05-06T06:08:25;21.30;99.90
5802;DHT22;2927;49.366;8.530;2023-05-06T06:10:51;21.80;1.00
5802;DHT22;2927;49.366;8.530;2023-05-06T06:13:16;22.10;12.20
5802;DHT22;2927;49.366;8.530;2023-05-06T06:15:42;22.70;1.00
5802;DHT22;2927;49.366;8.530;2023-05-06T06:18:07;23.20;1.00
5802;DHT22;2927;49.366;8.530;2023-05-06T06:20:34;22.90;1.00
5802;DHT22;2927;49.366;8.530;2023-05-06T06:23:00;23.00;1.00
5802;DHT22;2927;49.366;8.530;2023-05-06T06:25:26;23.60;1.00
5802;DHT22;2927;49.366;8.530;2023-05-06T06:27:53;24.20;1.00
5802;DHT22;2927;49.366;8.530;2023-05-06T06:30:18;24.70;99.90
5802;DHT22;2927;49.366;8.530;2023-05-06T06:32:51;24.60;99.90
5802;DHT22;2927;49.366;8.530;2023-05-06T06:35:17;25.40;1.00
5802;DHT22;2927;49.366;8.530;2023-05-06T06:37:45;24.90;1.00
5802;DHT22;2927;49.366;8.530;2023-05-06T06:40:11;24.10;99.90
5802;DHT22;2927;49.366;8.530;2023-05-06T06:42:36;23.90;1.00
5802;DHT22;2927;49.366;8.530;2023-05-06T06:45:02;24.10;99.90
5802;DHT22;2927;49.366;8.530;2023-05-06T06:47:28;24.10;99.90
5802;DHT22;2927;49.366;8.530;2023-05-06T06:49:53;24.30;99.90
5802;DHT22;2927;49.366;8.530;2023-05-06T06:52:19;23.70;99.90
5802;DHT22;2927;49.366;8.530;2023-05-06T06:54:44;23.30;1.00
5802;DHT22;2927;49.366;8.530;2023-05-06T06:57:10;22.70;1.00
5802;DHT22;2927;49.366;8.530;2023-05-06T06:59:35;22.10;1.00
5802;DHT22;2927;49.366;8.530;2023-05-06T07:02:01;22.40;99.90
5802;DHT22;2927;49.366;8.530;2023-05-06T07:04:27;22.80;99.90
5802;DHT22;2927;49.366;8.530;2023-05-06T07:06:52;23.40;28.60
5802;DHT22;2927;49.366;8.530;2023-05-06T07:09:18;24.70;99.90
5802;DHT22;2927;49.366;8.530;2023-05-06T07:11:44;26.10;1.00
5802;DHT22;2927;49.366;8.530;2023-05-06T07:14:10;27.00;1.00
5802;DHT22;2927;49.366;8.530;2023-05-06T07:16:35;26.50;1.00
5802;DHT22;2927;49.366;8.530;2023-05-06T07:19:01;26.60;1.00
5802;DHT22;2927;49.366;8.530;2023-05-06T07:21:27;26.30;1.00
5802;DHT22;2927;49.366;8.530;2023-05-06T07:23:52;25.50;1.00
5802;DHT22;2927;49.366;8.530;2023-05-06T07:26:18;25.10;1.00
5802;DHT22;2927;49.366;8.530;2023-05-06T07:28:43;24.90;1.00
5802;DHT22;2927;49.366;8.530;2023-05-06T07:31:09;25.00;1.00
5802;DHT22;2927;49.366;8.530;2023-05-06T07:33:34;24.90;1.00
5802;DHT22;2927;49.366;8.530;2023-05-06T07:36:00;25.10;1.00
5802;DHT22;2927;49.366;8.530;2023-05-06T07:38:26;26.50;1.00
5802;DHT22;2927;49.366;8.530;2023-05-06T07:40:51;27.00;1.00
5802;DHT22;2927;49.366;8.530;2023-05-06T07:43:17;26.40;1.00
5802;DHT22;2927;49.366;8.530;2023-05-06T07:45:43;27.10;99.90
5802;DHT22;2927;49.366;8.530;2023-05-06T07:48:08;27.70;99.90
5802;DHT22;2927;49.366;8.530;2023-05-06T07:50:34;27.70;99.90
5802;DHT22;2927;49.366;8.530;2023-05-06T07:53:00;28.10;99.90
5802;DHT22;2927;49.366;8.530;2023-05-06T07:55:26;27.60;99.90
5802;DHT22;2927;49.366;8.530;2023-05-06T07:57:52;27.70;99.90
5802;DHT22;2927;49.366;8.530;2023-05-06T08:00:17;27.70;99.90
5802;DHT22;2927;49.366;8.530;2023-05-06T08:02:43;27.80;99.90
5802;DHT22;2927;49.366;8.530;2023-05-06T08:05:09;28.00;99.90
5802;DHT22;2927;49.366;8.530;2023-05-06T08:07:35;28.50;99.90
5802;DHT22;2927;49.366;8.530;2023-05-06T08:10:01;28.10;99.90
5802;DHT22;2927;49.366;8.530;2023-05-06T08:12:26;27.90;99.90
5802;DHT22;2927;49.366;8.530;2023-05-06T08:14:52;28.40;99.90
5802;DHT22;2927;49.366;8.530;2023-05-06T08:17:19;29.40;99.90
5802;DHT22;2927;49.366;8.530;2023-05-06T08:19:44;29.80;99.90
5802;DHT22;2927;49.366;8.530;2023-05-06T08:22:10;29.50;99.90
5802;DHT22;2927;49.366;8.530;2023-05-06T08:24:35;29.40;98.40
5802;DHT22;2927;49.366;8.530;2023-05-06T08:27:01;29.00;72.20
5802;DHT22;2927;49.366;8.530;2023-05-06T08:29:27;29.20;84.10
5802;DHT22;2927;49.366;8.530;2023-05-06T08:31:53;29.20;98.10
5802;DHT22;2927;49.366;8.530;2023-05-06T08:34:18;29.60;44.70
5802;DHT22;2927;49.366;8.530;2023-05-06T08:36:45;29.60;25.80
5802;DHT22;2927;49.366;8.530;2023-05-06T08:39:11;29.50;25.60
5802;DHT22;2927;49.366;8.530;2023-05-06T08:41:38;29.70;54.60
5802;DHT22;2927;49.366;8.530;2023-05-06T08:44:05;29.70;20.80
5802;DHT22;2927;49.366;8.530;2023-05-06T08:46:31;29.60;30.80
5802;DHT22;2927;49.366;8.530;2023-05-06T08:48:58;29.10;17.20
5802;DHT22;2927;49.366;8.530;2023-05-06T08:51:27;29.40;27.90
5802;DHT22;2927;49.366;8.530;2023-05-06T08:53:54;29.40;20.10
5802;DHT22;2927;49.366;8.530;2023-05-06T08:56:22;28.90;10.80
5802;DHT22;2927;49.366;8.530;2023-05-06T08:58:50;29.20;2.20
5802;DHT22;2927;49.366;8.530;2023-05-06T09:01:16;29.20;1.00
5802;DHT22;2927;49.366;8.530;2023-05-06T09:03:42;29.60;12.20
5802;DHT22;2927;49.366;8.530;2023-05-06T09:06:09;30.00;1.00
5802;DHT22;2927;49.366;8.530;2023-05-06T09:08:34;30.10;1.00
5802;DHT22;2927;49.366;8.530;2023-05-06T09:11:00;30.30;1.00
5802;DHT22;2927;49.366;8.530;2023-05-06T09:13:26;30.30;1.00
5802;DHT22;2927;49.366;8.530;2023-05-06T09:15:53;30.00;1.00
5802;DHT22;2927;49.366;8.530;2023-05-06T09:18:19;30.00;1.00
5802;DHT22;2927;49.366;8.530;2023-05-06T09:20:46;29.70;1.00
5802;DHT22;2927;49.366;8.530;2023-05-06T09:23:14;29.60;1.00
5802;DHT22;2927;49.366;8.530;2023-05-06T09:25:41;29.70;1.00
5802;DHT22;2927;49.366;8.530;2023-05-06T09:28:11;29.30;1.00
5802;DHT22;2927;49.366;8.530;2023-05-06T09:30:44;29.90;1.00
5802;DHT22;2927;49.366;8.530;2023-05-06T09:33:11;29.50;1.00
5802;DHT22;2927;49.366;8.530;2023-05-06T09:35:39;29.70;1.00
5802;DHT22;2927;49.366;8.530;2023-05-06T09:38:05;29.90;1.00
5802;DHT22;2927;49.366;8.530;2023-05-06T09:40:31;29.80;1.00
5802;DHT22;2927;49.366;8.530;2023-05-06T09:42:57;29.60;1.00
5802;DHT22;2927;49.366;8.530;2023-05-06T09:45:23;30.10;1.00
5802;DHT22;2927;49.366;8.530;2023-05-06T09:47:49;30.30;1.00
5802;DHT22;2927;49.366;8.530;2023-05-06T09:50:15;30.10;1.00
5802;DHT22;2927;49.366;8.530;2023-05-06T09:52:44;30.10;1.00
5802;DHT22;2927;49.366;8.530;2023-05-06T09:55:10;29.60;1.00
5802;DHT22;2927;49.366;8.530;2023-05-06T09:57:36;29.50;1.00
5802;DHT22;2927;49.366;8.530;2023-05-06T10:00:03;29.20;1.00
5802;DHT22;2927;49.366;8.530;2023-05-06T10:02:31;29.80;1.00
5802;DHT22;2927;49.366;8.530;2023-05-06T10:04:57;30.20;1.00
5802;DHT22;2927;49.366;8.530;2023-05-06T10:07:24;30.20;1.00
5802;DHT22;2927;49.366;8.530;2023-05-06T10:09:53;30.60;1.00
5802;DHT22;2927;49.366;8.530;2023-05-06T10:12:19;30.10;1.00
5802;DHT22;2927;49.366;8.530;2023-05-06T10:14:44;29.40;1.00
5802;DHT22;2927;49.366;8.530;2023-05-06T10:17:11;28.70;1.00
5802;DHT22;2927;49.366;8.530;2023-05-06T10:19:39;28.20;1.00
5802;DHT22;2927;49.366;8.530;2023-05-06T10:22:51;27.30;1.00
5802;DHT22;2927;49.366;8.530;2023-05-06T10:25:39;26.70;1.00
5802;DHT22;2927;49.366;8.530;2023-05-06T10:28:07;26.90;1.00
5802;DHT22;2927;49.366;8.530;2023-05-06T10:30:33;26.90;1.00
5802;DHT22;2927;49.366;8.530;2023-05-06T10:33:06;26.30;1.00
5802;DHT22;2927;49.366;8.530;2023-05-06T10:38:11;26.10;1.00
5802;DHT22;2927;49.366;8.530;2023-05-06T10:40:38;25.70;26.90
5802;DHT22;2927;49.366;8.530;2023-05-06T10:43:31;26.00;73.30
5802;DHT22;2927;49.366;8.530;2023-05-06T10:46:02;25.70;24.80
5802;DHT22;2927;49.366;8.530;2023-05-06T10:48:28;25.50;55.00
5802;DHT22;2927;49.366;8.530;2023-05-06T10:54:03;25.80;46.50
5802;DHT22;2927;49.366;8.530;2023-05-06T10:56:39;25.50;39.50
5802;DHT22;2927;49.366;8.530;2023-05-06T10:59:09;25.40;11.10
5802;DHT22;2927;49.366;8.530;2023-05-06T11:01:40;25.20;99.90
5802;DHT22;2927;49.366;8.530;2023-05-06T11:04:10;25.60;41.90
5802;DHT22;2927;49.366;8.530;2023-05-06T11:06:41;25.20;1.00
5802;DHT22;2927;49.366;8.530;2023-05-06T11:09:15;25.60;57.50
5802;DHT22;2927;49.366;8.530;2023-05-06T11:11:58;25.80;11.00
5802;DHT22;2927;49.366;8.530;2023-05-06T11:14:37;25.40;4.80
5802;DHT22;2927;49.366;8.530;2023-05-06T11:17:04;25.70;94.90
5802;DHT22;2927;49.366;8.530;2023-05-06T11:19:34;25.80;51.40
5802;DHT22;2927;49.366;8.530;2023-05-06T11:22:01;25.90;19.10
5802;DHT22;2927;49.366;8.530;2023-05-06T11:24:28;25.70;8.50
5802;DHT22;2927;49.366;8.530;2023-05-06T11:26:58;25.70;1.00
5802;DHT22;2927;49.366;8.530;2023-05-06T11:29:25;25.80;13.80
5802;DHT22;2927;49.366;8.530;2023-05-06T11:31:51;25.20;1.00
5802;DHT22;2927;49.366;8.530;2023-05-06T11:34:31;24.80;29.80
5802;DHT22;2927;49.366;8.530;2023-05-06T11:37:06;25.20;14.90
5802;DHT22;2927;49.366;8.530;2023-05-06T11:39:34;25.30;12.40
5802;DHT22;2927;49.366;8.530;2023-05-06T11:42:01;25.20;1.20
5802;DHT22;2927;49.366;8.530;2023-05-06T11:44:36;25.20;5.90
5802;DHT22;2927;49.366;8.530;2023-05-06T11:47:06;25.20;2.90
5802;DHT22;2927;49.366;8.530;2023-05-06T11:49:36;25.60;14.50
5802;DHT22;2927;49.366;8.530;2023-05-06T11:52:02;25.80;17.30
5802;DHT22;2927;49.366;8.530;2023-05-06T11:54:32;26.00;1.00
5802;DHT22;2927;49.366;8.530;2023-05-06T11:56:58;25.90;1.00
5802;DHT22;2927;49.366;8.530;2023-05-06T11:59:41;25.30;5.50
5802;DHT22;2927;49.366;8.530;2023-05-06T12:02:10;24.90;19.90
5802;DHT22;2927;49.366;8.530;2023-05-06T12:04:42;25.30;36.40
5802;DHT22;2927;49.366;8.530;2023-05-06T12:07:09;25.60;16.40
5802;DHT22;2927;49.366;8.530;2023-05-06T12:09:40;25.60;13.60
5802;DHT22;2927;49.366;8.530;2023-05-06T12:12:07;25.80;2.80
5802;DHT22;2927;49.366;8.530;2023-05-06T12:14:35;26.00;20.00
5802;DHT22;2927;49.366;8.530;2023-05-06T12:17:01;26.00;3.00
5802;DHT22;2927;49.366;8.530;2023-05-06T12:19:27;25.30;4.40
5802;DHT22;2927;49.366;8.530;2023-05-06T12:21:53;25.20;25.70
5802;DHT22;2927;49.366;8.530;2023-05-06T12:24:28;25.40;22.00
5802;DHT22;2927;49.366;8.530;2023-05-06T12:26:56;25.00;14.70
5802;DHT22;2927;49.366;8.530;2023-05-06T12:29:22;25.40;49.40
5802;DHT22;2927;49.366;8.530;2023-05-06T12:31:47;25.60;29.10
5802;DHT22;2927;49.366;8.530;2023-05-06T12:34:16;25.20;5.50
5802;DHT22;2927;49.366;8.530;2023-05-06T12:36:45;25.10;7.90
5802;DHT22;2927;49.366;8.530;2023-05-06T12:39:11;25.30;13.70
5802;DHT22;2927;49.366;8.530;2023-05-06T12:41:44;25.30;1.00
5802;DHT22;2927;49.366;8.530;2023-05-06T12:44:36;25.20;1.00
5802;DHT22;2927;49.366;8.530;2023-05-06T12:47:17;25.30;6.30
5802;DHT22;2927;49.366;8.530;2023-05-06T12:49:51;25.10;37.50
5802;DHT22;2927;49.366;8.530;2023-05-06T12:52:22;25.00;26.50
5802;DHT22;2927;49.366;8.530;2023-05-06T12:54:48;24.80;1.60
5802;DHT22;2927;49.366;8.530;2023-05-06T12:57:14;24.90;1.00
5802;DHT22;2927;49.366;8.530;2023-05-06T12:59:42;24.50;1.00
5802;DHT22;2927;49.366;8.530;2023-05-06T13:02:08;24.40;1.00
5802;DHT22;2927;49.366;8.530;2023-05-06T13:04:34;24.10;1.00
5802;DHT22;2927;49.366;8.530;2023-05-06T13:06:59;24.20;1.00
5802;DHT22;2927;49.366;8.530;2023-05-06T13:09:25;24.40;10.70
5802;DHT22;2927;49.366;8.530;2023-05-06T13:11:51;24.80;1.00
5802;DHT22;2927;49.366;8.530;2023-05-06T13:14:16;24.70;1.00
5802;DHT22;2927;49.366;8.530;2023-05-06T13:16:42;24.90;1.00
5802;DHT22;2927;49.366;8.530;2023-05-06T13:19:09;25.10;1.00
5802;DHT22;2927;49.366;8.530;2023-05-06T13:21:36;25.00;1.00
5802;DHT22;2927;49.366;8.530;2023-05-06T13:24:02;25.10;1.00
5802;DHT22;2927;49.366;8.530;2023-05-06T13:26:28;25.00;1.00
5802;DHT22;2927;49.366;8.530;2023-05-06T13:28:54;25.10;1.00
5802;DHT22;2927;49.366;8.530;2023-05-06T13:31:19;25.20;1.00
5802;DHT22;2927;49.366;8.530;2023-05-06T13:33:46;25.20;1.00
5802;DHT22;2927;49.366;8.530;2023-05-06T13:36:12;25.10;1.00
5802;DHT22;2927;49.366;8.530;2023-05-06T13:38:37;25.10;1.00
5802;DHT22;2927;49.366;8.530;2023-05-06T13:41:04;25.20;1.00
5802;DHT22;2927;49.366;8.530;2023-05-06T13:43:29;24.80;1.00
5802;DHT22;2927;49.366;8.530;2023-05-06T13:45:55;24.80;1.00
5802;DHT22;2927;49.366;8.530;2023-05-06T13:48:20;24.90;1.00
5802;DHT22;2927;49.366;8.530;2023-05-06T13:50:46;25.00;1.00
5802;DHT22;2927;49.366;8.530;2023-05-06T13:53:13;25.00;1.00
5802;DHT22;2927;49.366;8.530;2023-05-06T13:55:39;25.00;1.00
5802;DHT22;2927;49.366;8.530;2023-05-06T13:58:06;24.90;1.00
5802;DHT22;2927;49.366;8.530;2023-05-06T14:00:32;25.00;1.00
5802;DHT22;2927;49.366;8.530;2023-05-06T14:02:58;24.70;1.00
5802;DHT22;2927;49.366;8.530;2023-05-06T14:05:23;24.70;1.00
5802;DHT22;2927;49.366;8.530;2023-05-06T14:07:49;24.60;1.00
5802;DHT22;2927;49.366;8.530;2023-05-06T14:10:15;24.40;1.00
5802;DHT22;2927;49.366;8.530;2023-05-06T14:12:40;24.30;1.30
5802;DHT22;2927;49.366;8.530;2023-05-06T14:15:10;24.70;4.10
5802;DHT22;2927;49.366;8.530;2023-05-06T14:17:35;24.80;1.00
5802;DHT22;2927;49.366;8.530;2023-05-06T14:20:01;24.60;1.00
5802;DHT22;2927;49.366;8.530;2023-05-06T14:22:28;24.60;1.00
5802;DHT22;2927;49.366;8.530;2023-05-06T14:24:54;24.90;3.70
5802;DHT22;2927;49.366;8.530;2023-05-06T14:27:19;25.30;1.00
5802;DHT22;2927;49.366;8.530;2023-05-06T14:29:45;25.40;1.00
5802;DHT22;2927;49.366;8.530;2023-05-06T14:32:14;25.70;1.00
5802;DHT22;2927;49.366;8.530;2023-05-06T14:34:39;25.70;1.00
5802;DHT22;2927;49.366;8.530;2023-05-06T14:37:05;25.60;1.00
5802;DHT22;2927;49.366;8.530;2023-05-06T14:39:31;25.50;1.00
5802;DHT22;2927;49.366;8.530;2023-05-06T14:41:56;25.70;1.00
5802;DHT22;2927;49.366;8.530;2023-05-06T14:44:22;25.60;1.00
5802;DHT22;2927;49.366;8.530;2023-05-06T14:46:48;25.70;1.00
5802;DHT22;2927;49.366;8.530;2023-05-06T14:49:14;25.70;1.00
5802;DHT22;2927;49.366;8.530;2023-05-06T14:51:42;25.60;1.00
5802;DHT22;2927;49.366;8.530;2023-05-06T14:54:07;25.20;1.00
5802;DHT22;2927;49.366;8.530;2023-05-06T14:56:33;24.80;1.00
5802;DHT22;2927;49.366;8.530;2023-05-06T14:58:59;24.80;1.00
5802;DHT22;2927;49.366;8.530;2023-05-06T15:01:24;24.90;1.00
5802;DHT22;2927;49.366;8.530;2023-05-06T15:03:50;25.00;1.00
5802;DHT22;2927;49.366;8.530;2023-05-06T15:06:17;25.00;1.00
5802;DHT22;2927;49.366;8.530;2023-05-06T15:08:43;24.90;1.00
5802;DHT22;2927;49.366;8.530;2023-05-06T15:11:08;24.70;1.00
5802;DHT22;2927;49.366;8.530;2023-05-06T15:13:34;24.90;1.00
5802;DHT22;2927;49.366;8.530;2023-05-06T15:16:00;24.80;1.00
5802;DHT22;2927;49.366;8.530;2023-05-06T15:18:25;24.80;1.00
5802;DHT22;2927;49.366;8.530;2023-05-06T15:20:51;24.90;1.00
5802;DHT22;2927;49.366;8.530;2023-05-06T15:23:19;25.10;1.00
5802;DHT22;2927;49.366;8.530;2023-05-06T15:25:45;25.10;1.00
5802;DHT22;2927;49.366;8.530;2023-05-06T15:28:10;25.00;1.00
5802;DHT22;2927;49.366;8.530;2023-05-06T15:30:36;24.90;1.00
5802;DHT22;2927;49.366;8.530;2023-05-06T15:33:02;24.90;1.00
5802;DHT22;2927;49.366;8.530;2023-05-06T15:35:28;24.70;1.00
5802;DHT22;2927;49.366;8.530;2023-05-06T15:37:54;24.60;1.00
5802;DHT22;2927;49.366;8.530;2023-05-06T15:40:23;24.30;1.00
5802;DHT22;2927;49.366;8.530;2023-05-06T15:42:50;24.20;1.00
5802;DHT22;2927;49.366;8.530;2023-05-06T15:45:16;24.30;1.00
5802;DHT22;2927;49.366;8.530;2023-05-06T15:47:42;24.50;1.00
5802;DHT22;2927;49.366;8.530;2023-05-06T15:50:07;24.70;1.00
5802;DHT22;2927;49.366;8.530;2023-05-06T15:52:33;24.60;1.00
5802;DHT22;2927;49.366;8.530;2023-05-06T15:54:58;24.70;1.00
5802;DHT22;2927;49.366;8.530;2023-05-06T15:57:28;24.60;1.00
5802;DHT22;2927;49.366;8.530;2023-05-06T15:59:54;24.30;1.00
5802;DHT22;2927;49.366;8.530;2023-05-06T16:02:19;24.30;1.00
5802;DHT22;2927;49.366;8.530;2023-05-06T16:04:45;24.10;1.00
5802;DHT22;2927;49.366;8.530;2023-05-06T16:07:11;24.20;1.80
5802;DHT22;2927;49.366;8.530;2023-05-06T16:09:36;24.20;1.00
5802;DHT22;2927;49.366;8.530;2023-05-06T16:12:03;24.30;3.80
5802;DHT22;2927;49.366;8.530;2023-05-06T16:14:29;24.20;4.70
5802;DHT22;2927;49.366;8.530;2023-05-06T16:16:54;24.20;4.10